createdAt,value
2022-08-02T00:00:40.896Z,14.40
2022-08-02T00:03:09.005Z,14.40
2022-08-02T00:05:40.321Z,14.40
2022-08-02T00:08:08.844Z,14.50
2022-08-02T00:10:37.951Z,14.50
2022-08-02T00:13:06.305Z,14.40
2022-08-02T00:15:34.447Z,14.50
2022-08-02T00:18:02.714Z,14.60
2022-08-02T00:20:30.939Z,14.50
2022-08-02T00:23:00.556Z,14.50
2022-08-02T00:25:28.651Z,15.80
2022-08-02T00:27:56.930Z,14.50
2022-08-02T00:30:25.131Z,14.50
2022-08-02T00:32:53.437Z,14.50
2022-08-02T00:35:22.125Z,14.50
2022-08-02T00:37:50.297Z,14.40
2022-08-02T00:40:24.158Z,14.40
2022-08-02T00:43:04.416Z,14.40
2022-08-02T00:46:03.207Z,14.50
2022-08-02T00:48:20.989Z,15.40
2022-08-02T00:50:49.065Z,14.50
2022-08-02T00:53:17.330Z,14.50
2022-08-02T00:55:46.865Z,14.50
2022-08-02T00:58:16.117Z,14.50
2022-08-02T01:00:44.407Z,14.40
2022-08-02T01:03:12.825Z,14.40
2022-08-02T01:06:10.138Z,14.50
2022-08-02T01:08:31.925Z,14.50
2022-08-02T01:11:01.797Z,14.90
2022-08-02T01:13:30.133Z,14.50
2022-08-02T01:16:05.046Z,14.50
2022-08-02T01:18:39.325Z,14.50
2022-08-02T01:21:24.525Z,15.70
2022-08-02T01:24:08.210Z,14.90
2022-08-02T01:26:43.965Z,14.40
2022-08-02T01:29:19.558Z,14.40
2022-08-02T01:31:54.086Z,14.40
2022-08-02T01:34:30.426Z,15.30
2022-08-02T01:37:03.807Z,14.40
2022-08-02T01:39:36.166Z,14.40
2022-08-02T01:42:05.447Z,14.20
2022-08-02T01:44:39.339Z,14.10
2022-08-02T01:47:12.042Z,14.10
2022-08-02T01:49:43.229Z,14.00
2022-08-02T01:52:25.386Z,14.90
2022-08-02T01:55:00.622Z,13.90
2022-08-02T01:57:32.698Z,13.80
2022-08-02T02:00:03.615Z,14.00
2022-08-02T02:02:35.675Z,13.90
2022-08-02T02:05:08.068Z,13.90
2022-08-02T02:07:37.274Z,13.70
2022-08-02T02:10:06.555Z,13.80
2022-08-02T02:12:36.891Z,13.80
2022-08-02T02:15:10.408Z,14.00
2022-08-02T02:17:52.619Z,13.80
2022-08-02T02:20:29.182Z,14.20
2022-08-02T02:22:57.326Z,13.70
2022-08-02T02:25:32.290Z,13.80
2022-08-02T02:28:09.999Z,14.80
2022-08-02T02:30:42.856Z,13.70
2022-08-02T02:33:12.739Z,13.70
2022-08-02T02:35:43.495Z,13.70
2022-08-02T02:38:17.055Z,13.80
2022-08-02T02:40:47.563Z,13.60
2022-08-02T02:43:16.671Z,13.60
2022-08-02T02:45:47.351Z,13.60
2022-08-02T02:48:16.403Z,16.70
2022-08-02T02:50:45.379Z,13.50
2022-08-02T02:53:14.676Z,13.50
2022-08-02T02:56:01.635Z,13.50
2022-08-02T02:58:31.690Z,13.50
2022-08-02T03:01:19.133Z,13.50
2022-08-02T03:03:47.960Z,13.40
2022-08-02T03:06:16.624Z,14.30
2022-08-02T03:08:44.927Z,13.40
2022-08-02T03:11:15.766Z,14.20
2022-08-02T03:13:44.534Z,14.40
2022-08-02T03:16:14.712Z,13.40
2022-08-02T03:18:44.868Z,13.40
2022-08-02T03:21:14.598Z,13.40
2022-08-02T03:23:44.293Z,13.50
2022-08-02T03:26:12.460Z,13.40
2022-08-02T03:28:40.638Z,13.50
2022-08-02T03:31:09.395Z,13.40
2022-08-02T03:33:40.027Z,13.30
2022-08-02T03:36:12.297Z,13.30
2022-08-02T03:38:41.629Z,13.30
2022-08-02T03:41:11.485Z,13.40
2022-08-02T03:43:41.037Z,13.80
2022-08-02T03:46:10.857Z,13.40
2022-08-02T03:48:40.969Z,14.00
2022-08-02T03:51:09.906Z,13.30
2022-08-02T03:53:40.011Z,13.70
2022-08-02T03:56:08.797Z,13.40
2022-08-02T03:58:37.130Z,13.30
2022-08-02T04:01:05.310Z,13.80
2022-08-02T04:03:33.670Z,13.30
2022-08-02T04:06:05.005Z,13.30
2022-08-02T04:08:38.059Z,13.30
2022-08-02T04:11:24.887Z,13.30
2022-08-02T04:13:56.514Z,13.40
2022-08-02T04:16:32.087Z,13.70
2022-08-02T04:19:04.126Z,13.40
2022-08-02T04:21:49.055Z,14.10
2022-08-02T04:24:24.970Z,13.80
2022-08-02T04:26:57.849Z,13.50
2022-08-02T04:29:36.030Z,13.50
2022-08-02T04:32:06.276Z,13.50
2022-08-02T04:34:34.603Z,13.60
2022-08-02T04:37:04.339Z,13.60
2022-08-02T04:39:32.968Z,13.70
2022-08-02T04:42:01.091Z,13.90
2022-08-02T04:44:29.390Z,13.80
2022-08-02T04:46:58.314Z,14.20
2022-08-02T04:49:26.383Z,15.10
2022-08-02T04:51:54.860Z,15.10
2022-08-02T04:54:25.937Z,14.30
2022-08-02T04:56:54.211Z,14.40
2022-08-02T04:59:22.755Z,14.60
2022-08-02T05:01:51.395Z,16.30
2022-08-02T05:04:19.571Z,14.80
2022-08-02T05:06:47.872Z,14.90
2022-08-02T05:09:16.036Z,14.90
2022-08-02T05:11:45.739Z,15.10
2022-08-02T05:14:23.080Z,15.20
2022-08-02T05:16:51.578Z,15.30
2022-08-02T05:19:19.872Z,15.40
2022-08-02T05:21:48.180Z,15.40
2022-08-02T05:24:16.379Z,15.50
2022-08-02T05:26:46.305Z,16.10
2022-08-02T05:29:14.643Z,15.50
2022-08-02T05:31:42.724Z,16.70
2022-08-02T05:34:12.200Z,15.60
2022-08-02T05:36:42.102Z,15.70
2022-08-02T05:39:11.493Z,15.70
2022-08-02T05:41:41.011Z,15.90
2022-08-02T05:44:10.835Z,16.00
2022-08-02T05:46:39.201Z,16.10
2022-08-02T05:49:07.514Z,16.90
2022-08-02T05:51:38.483Z,16.30
2022-08-02T05:54:16.409Z,16.40
2022-08-02T05:56:52.167Z,16.50
2022-08-02T05:59:33.203Z,16.60
2022-08-02T06:02:05.834Z,16.80
2022-08-02T06:04:42.539Z,17.30
2022-08-02T06:07:12.494Z,16.90
2022-08-02T06:09:42.576Z,17.00
2022-08-02T06:12:14.892Z,17.20
2022-08-02T06:14:48.440Z,17.60
2022-08-02T06:17:20.320Z,17.60
2022-08-02T06:19:52.346Z,18.00
2022-08-02T06:22:34.458Z,18.30
2022-08-02T06:25:06.307Z,17.80
2022-08-02T06:27:35.212Z,18.00
2022-08-02T06:30:06.313Z,18.10
2022-08-02T06:32:35.097Z,18.20
2022-08-02T06:35:04.074Z,18.40
2022-08-02T06:37:39.405Z,19.20
2022-08-02T06:40:17.115Z,18.60
2022-08-02T06:42:50.489Z,18.90
2022-08-02T06:45:21.945Z,19.10
2022-08-02T06:47:50.138Z,19.30
2022-08-02T06:50:18.789Z,19.60
2022-08-02T06:52:46.898Z,19.80
2022-08-02T06:55:15.298Z,20.30
2022-08-02T06:57:43.589Z,20.70
2022-08-02T07:00:12.862Z,20.90
2022-08-02T07:02:42.441Z,21.10
2022-08-02T07:05:11.370Z,21.20
2022-08-02T07:07:39.791Z,21.20
2022-08-02T07:10:08.513Z,21.50
2022-08-02T07:12:36.762Z,21.60
2022-08-02T07:15:07.382Z,21.60
2022-08-02T07:17:36.406Z,21.70
2022-08-02T07:20:07.912Z,21.90
2022-08-02T07:22:36.268Z,21.70
2022-08-02T07:25:05.320Z,21.90
2022-08-02T07:27:33.737Z,21.90
2022-08-02T07:30:02.300Z,22.10
2022-08-02T07:32:32.367Z,22.50
2022-08-02T07:35:02.672Z,22.50
2022-08-02T07:37:55.078Z,22.70
2022-08-02T07:40:27.343Z,23.00
2022-08-02T07:43:02.732Z,23.20
2022-08-02T07:45:32.969Z,23.90
2022-08-02T07:48:04.269Z,23.40
2022-08-02T07:50:32.506Z,24.50
2022-08-02T07:53:04.357Z,23.70
2022-08-02T07:55:40.011Z,23.90
2022-08-02T07:58:12.223Z,24.20
2022-08-02T08:00:42.089Z,24.90
2022-08-02T08:03:10.420Z,24.60
2022-08-02T08:05:38.528Z,24.80
2022-08-02T08:08:12.277Z,25.30
2022-08-02T08:10:43.916Z,25.20
2022-08-02T08:13:12.134Z,25.30
2022-08-02T08:15:40.281Z,25.40
2022-08-02T08:18:08.420Z,25.20
2022-08-02T08:20:40.048Z,25.20
2022-08-02T08:23:09.729Z,25.30
2022-08-02T08:25:41.349Z,25.30
2022-08-02T08:28:09.822Z,25.40
2022-08-02T08:30:38.324Z,25.60
2022-08-02T08:33:06.744Z,25.70
2022-08-02T08:35:34.858Z,26.00
2022-08-02T08:38:07.534Z,26.00
2022-08-02T08:40:38.653Z,26.10
2022-08-02T08:43:06.989Z,26.30
2022-08-02T08:45:35.214Z,26.60
2022-08-02T08:48:11.347Z,27.00
2022-08-02T08:50:43.747Z,26.70
2022-08-02T08:53:13.823Z,26.80
2022-08-02T08:55:44.668Z,26.90
2022-08-02T08:58:14.136Z,27.10
2022-08-02T09:00:42.502Z,27.40
2022-08-02T09:03:11.904Z,27.20
2022-08-02T09:05:41.735Z,27.60
2022-08-02T09:08:14.808Z,27.70
2022-08-02T09:10:48.301Z,27.70
2022-08-02T09:13:37.925Z,27.70
2022-08-02T09:16:11.476Z,27.80
2022-08-02T09:18:45.386Z,27.90
2022-08-02T09:21:18.081Z,28.00
2022-08-02T09:23:48.272Z,28.20
2022-08-02T09:26:19.654Z,28.20
2022-08-02T09:28:49.982Z,28.20
2022-08-02T09:31:19.703Z,28.30
2022-08-02T09:33:54.303Z,28.40
2022-08-02T09:36:23.562Z,28.70
2022-08-02T09:38:57.419Z,28.80
2022-08-02T09:41:29.093Z,28.90
2022-08-02T09:44:04.502Z,28.80
2022-08-02T09:46:38.805Z,28.90
2022-08-02T09:49:10.145Z,28.60
2022-08-02T09:51:40.416Z,28.40
2022-08-02T09:54:11.638Z,28.40
2022-08-02T09:56:46.938Z,28.20
2022-08-02T09:59:17.163Z,28.00
2022-08-02T10:01:50.792Z,27.80
2022-08-02T10:04:29.894Z,27.80
2022-08-02T10:06:59.428Z,28.00
2022-08-02T10:09:29.517Z,28.30
2022-08-02T10:12:00.521Z,28.60
2022-08-02T10:14:30.759Z,28.50
2022-08-02T10:16:59.452Z,29.20
2022-08-02T10:20:00.693Z,28.60
2022-08-02T10:22:20.066Z,28.50
2022-08-02T10:24:49.199Z,28.60
2022-08-02T10:27:20.996Z,28.50
2022-08-02T10:29:54.731Z,28.40
2022-08-02T10:32:31.045Z,28.40
2022-08-02T10:35:20.043Z,28.50
2022-08-02T10:37:54.609Z,28.20
2022-08-02T10:40:26.664Z,28.00
2022-08-02T10:43:00.851Z,27.90
2022-08-02T10:45:30.078Z,28.00
2022-08-02T10:48:00.127Z,28.00
2022-08-02T10:50:54.605Z,28.00
2022-08-02T10:53:28.542Z,28.10
2022-08-02T10:55:59.151Z,28.70
2022-08-02T10:58:32.194Z,28.50
2022-08-02T11:01:05.449Z,28.50
2022-08-02T11:03:40.738Z,28.40
2022-08-02T11:06:26.203Z,28.20
2022-08-02T11:09:32.361Z,28.10
2022-08-02T11:12:04.109Z,28.10
2022-08-02T11:14:35.771Z,28.10
2022-08-02T11:17:16.302Z,28.10
2022-08-02T11:20:27.413Z,28.20
2022-08-02T11:22:57.141Z,28.40
2022-08-02T11:26:01.091Z,28.40
2022-08-02T11:28:24.792Z,28.50
2022-08-02T11:31:02.782Z,28.60
2022-08-02T11:33:35.900Z,28.60
2022-08-02T11:36:06.918Z,28.70
2022-08-02T11:38:35.858Z,28.70
2022-08-02T11:41:09.696Z,28.60
2022-08-02T11:43:38.892Z,28.40
2022-08-02T11:46:14.407Z,28.10
2022-08-02T11:48:44.011Z,28.30
2022-08-02T11:51:14.503Z,28.10
2022-08-02T11:53:47.412Z,28.00
2022-08-02T11:56:24.089Z,28.20
2022-08-02T11:59:04.225Z,28.20
2022-08-02T12:01:36.717Z,28.20
2022-08-02T12:04:16.815Z,28.20
2022-08-02T12:06:45.427Z,28.20
2022-08-02T12:09:18.739Z,28.10
2022-08-02T12:11:51.040Z,28.10
2022-08-02T12:14:19.641Z,28.10
2022-08-02T12:17:07.263Z,28.00
2022-08-02T12:19:36.319Z,28.00
2022-08-02T12:22:09.970Z,28.00
2022-08-02T12:24:38.933Z,28.00
2022-08-02T12:27:08.174Z,28.00
2022-08-02T12:29:58.161Z,28.00
2022-08-02T12:32:28.568Z,28.10
2022-08-02T12:35:11.919Z,28.20
2022-08-02T12:37:42.020Z,28.20
2022-08-02T12:40:25.473Z,28.20
2022-08-02T12:42:56.503Z,28.10
2022-08-02T12:45:24.905Z,27.90
2022-08-02T12:47:58.737Z,27.80
2022-08-02T12:50:29.356Z,27.90
2022-08-02T12:53:09.078Z,27.90
2022-08-02T12:55:59.957Z,28.00
2022-08-02T12:58:30.512Z,27.90
2022-08-02T13:01:00.414Z,27.90
2022-08-02T13:04:09.754Z,27.80
2022-08-02T13:06:40.663Z,27.90
2022-08-02T13:09:16.221Z,27.90
2022-08-02T13:11:45.244Z,27.90
2022-08-02T13:14:15.093Z,27.70
2022-08-02T13:16:46.242Z,27.60
2022-08-02T13:19:16.386Z,27.60
2022-08-02T13:22:02.194Z,27.60
2022-08-02T13:24:39.834Z,27.60
2022-08-02T13:27:22.394Z,27.60
2022-08-02T13:29:50.794Z,27.50
2022-08-02T13:32:19.150Z,27.50
2022-08-02T13:34:49.323Z,27.60
2022-08-02T13:37:18.361Z,27.30
2022-08-02T13:40:05.690Z,27.30
2022-08-02T13:42:35.111Z,27.20
2022-08-02T13:45:12.564Z,27.20
2022-08-02T13:48:03.387Z,27.20
2022-08-02T13:50:33.346Z,27.20
2022-08-02T13:53:01.792Z,27.20
2022-08-02T13:55:30.278Z,27.20
2022-08-02T13:58:00.130Z,27.10
2022-08-02T14:00:35.366Z,27.10
2022-08-02T14:03:05.863Z,27.20
2022-08-02T14:05:47.756Z,27.20
2022-08-02T14:08:17.818Z,27.80
2022-08-02T14:10:47.084Z,27.20
2022-08-02T14:13:15.379Z,27.20
2022-08-02T14:15:43.932Z,27.20
2022-08-02T14:18:12.098Z,27.30
2022-08-02T14:20:41.907Z,27.30
2022-08-02T14:23:09.999Z,27.30
2022-08-02T14:25:38.664Z,27.20
2022-08-02T14:28:06.894Z,27.20
2022-08-02T14:30:35.391Z,27.20
2022-08-02T14:33:04.112Z,27.20
2022-08-02T14:35:32.759Z,27.20
2022-08-02T14:38:02.275Z,27.20
2022-08-02T14:40:31.644Z,27.20
2022-08-02T14:43:01.170Z,27.20
2022-08-02T14:45:40.042Z,27.10
2022-08-02T14:48:10.978Z,27.10
2022-08-02T14:50:40.036Z,27.20
2022-08-02T14:53:12.231Z,27.20
2022-08-02T14:55:42.406Z,27.30
2022-08-02T14:58:11.078Z,27.20
2022-08-02T15:00:41.163Z,27.20
2022-08-02T15:03:10.681Z,27.00
2022-08-02T15:05:39.015Z,27.20
2022-08-02T15:08:07.819Z,27.20
2022-08-02T15:10:37.741Z,27.20
2022-08-02T15:13:06.179Z,27.20
2022-08-02T15:15:40.474Z,27.00
2022-08-02T15:18:13.329Z,27.00
2022-08-02T15:20:42.522Z,27.00
2022-08-02T15:23:19.648Z,27.00
2022-08-02T15:25:49.633Z,26.90
2022-08-02T15:28:17.902Z,26.90
2022-08-02T15:30:45.993Z,26.90
2022-08-02T15:33:14.118Z,27.00
2022-08-02T15:35:42.286Z,27.00
2022-08-02T15:38:10.638Z,27.00
2022-08-02T15:40:39.039Z,27.00
2022-08-02T15:43:09.029Z,27.00
2022-08-02T15:45:37.956Z,27.00
2022-08-02T15:48:07.338Z,27.00
2022-08-02T15:50:36.168Z,27.10
2022-08-02T15:53:04.484Z,27.00
2022-08-02T15:55:39.901Z,27.20
2022-08-02T15:58:22.296Z,27.10
2022-08-02T16:00:51.390Z,27.10
2022-08-02T16:03:19.839Z,27.10
2022-08-02T16:05:48.471Z,28.00
2022-08-02T16:08:16.640Z,26.80
2022-08-02T16:10:45.168Z,26.90
2022-08-02T16:13:30.813Z,26.90
2022-08-02T16:16:00.399Z,26.80
2022-08-02T16:18:28.614Z,26.90
2022-08-02T16:20:56.825Z,26.80
2022-08-02T16:23:59.009Z,26.80
2022-08-02T16:26:15.998Z,26.80
2022-08-02T16:28:44.230Z,26.80
2022-08-02T16:31:14.006Z,26.70
2022-08-02T16:33:42.707Z,26.70
2022-08-02T16:36:14.156Z,26.70
2022-08-02T16:38:42.345Z,26.60
2022-08-02T16:41:10.467Z,26.60
2022-08-02T16:43:39.069Z,26.60
2022-08-02T16:46:09.820Z,26.60
2022-08-02T17:05:14.555Z,26.50
2022-08-02T17:08:15.064Z,26.60
2022-08-02T17:10:33.418Z,26.50
2022-08-02T17:13:11.176Z,26.50
2022-08-02T17:16:15.787Z,26.40
2022-08-02T17:18:42.471Z,26.40
2022-08-02T17:21:12.351Z,26.30
2022-08-02T17:24:05.709Z,26.20
2022-08-02T17:26:30.076Z,26.20
2022-08-02T17:29:17.515Z,26.10
2022-08-02T17:32:05.946Z,26.10
2022-08-02T17:34:36.933Z,26.10
2022-08-02T17:37:08.232Z,26.00
2022-08-02T17:39:44.091Z,26.00
2022-08-02T17:42:23.778Z,26.10
2022-08-02T17:44:53.857Z,26.00
2022-08-02T17:47:22.243Z,26.00
2022-08-02T17:49:52.684Z,26.40
2022-08-02T17:52:51.280Z,25.90
2022-08-02T17:55:14.288Z,26.30
2022-08-02T17:57:57.388Z,25.80
2022-08-02T18:00:33.786Z,25.70
2022-08-02T18:03:05.675Z,25.60
2022-08-02T18:05:39.732Z,25.60
2022-08-02T18:08:23.611Z,25.60
2022-08-02T18:10:52.549Z,25.60
2022-08-02T18:13:21.181Z,25.50
2022-08-02T18:15:49.484Z,25.40
2022-08-02T18:18:19.177Z,25.40
2022-08-02T18:20:57.776Z,25.30
2022-08-02T18:23:27.609Z,25.20
2022-08-02T18:25:55.906Z,25.20
2022-08-02T18:28:26.884Z,25.10
2022-08-02T18:30:55.214Z,25.00
2022-08-02T18:33:59.674Z,24.90
2022-08-02T18:36:24.669Z,24.70
2022-08-02T18:38:55.595Z,24.60
2022-08-02T18:41:23.732Z,24.50
2022-08-02T18:43:53.141Z,24.40
2022-08-02T18:46:21.785Z,24.30
2022-08-02T18:48:49.926Z,24.20
2022-08-02T18:51:19.379Z,24.10
2022-08-02T18:53:50.886Z,24.00
2022-08-02T18:56:24.325Z,23.90
2022-08-02T18:58:54.600Z,23.80
2022-08-02T19:01:32.670Z,23.70
2022-08-02T19:04:03.991Z,23.60
2022-08-02T19:06:32.741Z,23.50
2022-08-02T19:09:05.838Z,23.50
2022-08-02T19:11:47.267Z,23.40
2022-08-02T19:14:19.028Z,23.20
2022-08-02T19:16:52.492Z,23.20
2022-08-02T19:19:21.251Z,23.00
2022-08-02T19:22:17.496Z,23.00
2022-08-02T19:24:38.322Z,22.90
2022-08-02T19:27:13.766Z,22.80
2022-08-02T19:29:49.034Z,22.80
2022-08-02T19:32:39.594Z,22.70
2022-08-02T19:37:59.418Z,22.50
2022-08-02T19:40:29.657Z,22.50
2022-08-02T19:44:26.938Z,22.40
2022-08-02T19:45:49.724Z,22.30
2022-08-02T19:48:23.621Z,22.30
2022-08-02T19:50:56.803Z,22.20
2022-08-02T19:53:46.460Z,22.20
2022-08-02T19:56:20.555Z,22.80
2022-08-02T19:58:52.015Z,22.10
2022-08-02T20:01:25.277Z,22.00
2022-08-02T20:03:55.968Z,22.00
2022-08-02T20:06:29.695Z,21.80
2022-08-02T20:09:01.287Z,21.80
2022-08-02T20:11:35.583Z,21.70
2022-08-02T20:14:08.272Z,21.70
2022-08-02T20:16:37.490Z,21.70
2022-08-02T20:19:07.781Z,21.60
2022-08-02T20:21:42.067Z,21.60
2022-08-02T20:24:10.904Z,21.60
2022-08-02T20:26:47.824Z,21.60
2022-08-02T20:32:07.870Z,21.40
2022-08-02T20:34:36.880Z,21.40
2022-08-02T20:37:59.844Z,21.30
2022-08-02T20:39:53.981Z,21.30
2022-08-02T20:42:23.424Z,21.30
2022-08-02T20:45:12.837Z,21.20
2022-08-02T20:47:43.589Z,21.10
2022-08-02T20:50:35.704Z,21.10
2022-08-02T20:53:05.540Z,21.20
2022-08-02T20:55:34.126Z,21.00
2022-08-02T20:58:04.261Z,21.00
2022-08-02T21:00:34.005Z,20.90
2022-08-02T21:03:02.985Z,21.00
2022-08-02T21:05:54.017Z,20.90
2022-08-02T21:08:21.758Z,20.80
2022-08-02T21:10:52.605Z,21.00
2022-08-02T21:13:23.794Z,20.80
2022-08-02T21:15:55.486Z,20.80
2022-08-02T21:18:34.935Z,20.70
2022-08-02T21:21:10.689Z,20.70
2022-08-02T21:23:48.507Z,20.70
2022-08-02T21:29:15.432Z,20.60
2022-08-02T21:31:45.206Z,20.90
2022-08-02T21:34:22.275Z,20.60
2022-08-02T21:36:56.196Z,20.60
2022-08-02T21:39:24.740Z,21.10
2022-08-02T21:41:53.067Z,20.40
2022-08-02T21:44:23.071Z,20.30
2022-08-02T21:46:54.044Z,20.30
2022-08-02T21:49:40.543Z,20.30
2022-08-02T21:52:09.727Z,20.30
2022-08-02T21:54:39.765Z,20.30
2022-08-02T21:57:15.486Z,20.20
2022-08-02T21:59:45.116Z,20.20
2022-08-02T22:02:15.527Z,20.40
2022-08-02T22:04:47.418Z,20.10
2022-08-02T22:07:17.481Z,20.20
2022-08-02T22:09:51.828Z,20.10
2022-08-02T22:12:21.877Z,20.10
2022-08-02T22:14:56.335Z,20.10
2022-08-02T22:17:46.763Z,20.20
2022-08-02T22:20:19.697Z,20.20
2022-08-02T22:22:50.440Z,20.20
2022-08-02T22:25:27.010Z,20.20
2022-08-02T22:28:38.160Z,20.20
2022-08-02T22:30:54.847Z,20.20
2022-08-02T22:33:47.121Z,20.10
2022-08-02T22:36:33.779Z,20.10
2022-08-02T22:39:03.186Z,20.10
2022-08-02T22:42:02.361Z,20.10
2022-08-02T22:44:20.160Z,20.00
2022-08-02T22:46:49.734Z,19.90
2022-08-02T22:49:38.174Z,19.80
2022-08-02T22:52:08.646Z,19.80
2022-08-02T22:54:50.972Z,19.70
2022-08-02T22:57:30.734Z,19.70
2022-08-02T22:58:55.568Z,21.50
2022-08-02T22:59:08.007Z,22.70
2022-08-02T22:59:59.860Z,20.50
2022-08-02T23:02:28.047Z,20.10
2022-08-02T23:04:59.405Z,19.60
2022-08-02T23:07:28.071Z,19.50
2022-08-02T23:10:06.003Z,19.40
2022-08-02T23:12:34.008Z,19.40
2022-08-02T23:15:02.477Z,19.60
2022-08-02T23:17:48.312Z,19.40
2022-08-02T23:20:17.773Z,19.30
2022-08-02T23:22:46.016Z,19.20
2022-08-02T23:25:14.094Z,19.30
2022-08-02T23:27:50.476Z,19.30
2022-08-02T23:30:19.316Z,19.10
2022-08-02T23:32:47.794Z,19.10
2022-08-02T23:35:17.632Z,19.00
2022-08-02T23:37:59.859Z,19.10
2022-08-02T23:40:39.686Z,19.00
2022-08-02T23:43:14.686Z,19.10
2022-08-02T23:45:45.047Z,19.10
2022-08-02T23:48:13.530Z,19.10
2022-08-02T23:50:43.537Z,19.00
2022-08-02T23:53:11.630Z,20.00
2022-08-02T23:55:39.946Z,19.00
2022-08-02T23:58:08.274Z,19.00
